Time;durP1;ratioP1;P1;durP2;ratioP2;P2;SDS_P1;SDS_P2;PMS_P1;PMS_P2;Temp;Humidity;BMP_temperature;BMP_pressure;BME280_temperature;BME280_humidity;BME280_pressure;Samples;Min_cycle;Max_cycle;Signal;HPM_P1;HPM_P2
2022/12/30 00:00:09;;;;;;;11.63;1.52;;;;;;;-142.75;100.00;77434.53;5104023;28;20036;-66
2022/12/30 00:02:35;;;;;;;11.02;2.00;;;;;;;-142.75;100.00;77436.50;5102091;28;20027;-66
2022/12/30 00:05:00;;;;;;;17.63;2.70;;;;;;;-142.75;100.00;77436.50;5083338;28;20108;-65
2022/12/30 00:07:26;;;;;;;8.77;0.98;;;;;;;-142.75;100.00;77436.50;5100211;28;20034;-68
2022/12/30 00:09:53;;;;;;;6.78;1.77;;;;;;;-142.75;100.00;77436.50;5101107;28;20223;-65
2022/12/30 00:34:18;;;;;;;16.57;1.67;;;;;;;-142.75;100.00;77450.28;5103450;28;20123;-64
2022/12/30 00:36:46;;;;;;;9.70;1.43;;;;;;;-142.75;100.00;77442.41;5102268;28;20023;-65
2022/12/30 00:39:12;;;;;;;14.47;1.43;;;;;;;-142.75;100.00;77452.25;5103174;28;20028;-64
2022/12/30 00:44:21;;;;;;;12.00;1.30;;;;;;;-142.75;100.00;77468.03;5022357;28;20112;-67
2022/12/30 00:46:47;;;;;;;3.13;1.05;;;;;;;-142.75;100.00;77466.03;5022164;28;20033;-67
2022/12/30 00:57:25;;;;;;;7.37;1.50;;;;;;;-142.75;100.00;77468.03;5041603;28;20075;-67
2022/12/30 00:59:50;;;;;;;7.90;1.48;;;;;;;-142.75;100.00;77470.00;5042232;28;20120;-67
2022/12/30 01:02:16;;;;;;;9.27;1.08;;;;;;;-142.75;100.00;77471.97;5042281;28;20032;-67
2022/12/30 01:04:41;;;;;;;7.70;1.40;;;;;;;-142.75;100.00;77470.00;5042334;28;20040;-68
2022/12/30 01:07:06;;;;;;;12.32;1.40;;;;;;;-142.75;100.00;77483.78;5041896;28;20020;-67
2022/12/30 01:09:35;;;;;;;10.77;1.13;;;;;;;-142.75;100.00;77471.97;5042205;28;20027;-67
2022/12/30 01:12:09;;;;;;;14.90;2.10;;;;;;;-142.75;100.00;77477.88;5042140;28;20033;-67
2022/12/30 01:14:34;;;;;;;11.00;1.23;;;;;;;-142.75;100.00;77489.69;5041733;28;20029;-67
2022/12/30 01:17:00;;;;;;;14.87;1.10;;;;;;;-142.75;100.00;77489.69;5023345;28;20542;-67
2022/12/30 01:19:25;;;;;;;7.82;1.00;;;;;;;-142.75;100.00;77495.59;5042012;28;20287;-67
2022/12/30 01:21:50;;;;;;;6.35;1.20;;;;;;;-142.75;100.00;77505.44;5042242;28;20136;-67
2022/12/30 01:24:16;;;;;;;6.65;1.73;;;;;;;-142.75;100.00;77499.53;5041682;28;20039;-67
2022/12/30 01:26:41;;;;;;;9.18;1.63;;;;;;;-142.75;100.00;77501.50;5041162;28;20040;-67
2022/12/30 01:29:06;;;;;;;12.30;1.63;;;;;;;-142.75;100.00;77509.38;5040731;28;20027;-67
2022/12/30 01:31:31;;;;;;;10.95;1.40;;;;;;;-142.75;100.00;77495.59;5041501;28;20557;-67
2022/12/30 01:33:57;;;;;;;7.35;1.95;;;;;;;-142.75;100.00;77511.34;5041367;28;20057;-67
2022/12/30 01:36:22;;;;;;;9.70;1.88;;;;;;;-142.75;100.00;77515.28;5041555;28;20094;-67
2022/12/30 01:38:47;;;;;;;6.85;1.10;;;;;;;-142.75;100.00;77515.28;5041005;28;20021;-67
2022/12/30 01:41:13;;;;;;;6.03;1.43;;;;;;;-142.75;100.00;77509.38;5041330;28;20028;-67
2022/12/30 01:43:47;;;;;;;13.60;1.67;;;;;;;-142.75;100.00;77527.09;5023245;28;20803;-67
2022/12/30 01:46:22;;;;;;;6.67;1.47;;;;;;;-142.75;100.00;77521.19;5041092;28;20451;-67
2022/12/30 01:48:51;;;;;;;13.13;1.80;;;;;;;-142.75;100.00;77517.25;5040918;28;20090;-67
2022/12/30 01:51:21;;;;;;;10.90;1.40;;;;;;;-142.75;100.00;77525.13;5041587;28;20025;-67
2022/12/30 01:53:50;;;;;;;8.67;1.30;;;;;;;-142.75;100.00;77525.13;5041475;28;20025;-67
2022/12/30 01:56:39;;;;;;;8.40;1.30;;;;;;;-142.75;100.00;77523.16;5041257;28;20407;-67
2022/12/30 01:59:09;;;;;;;9.07;2.30;;;;;;;-142.75;100.00;77527.09;5040857;28;20025;-67
2022/12/30 02:01:36;;;;;;;9.60;1.40;;;;;;;-142.75;100.00;77529.06;5040981;28;20027;-67
2022/12/30 02:04:07;;;;;;;9.70;2.00;;;;;;;-142.75;100.00;77523.16;5041236;28;20021;-67
2022/12/30 02:06:51;;;;;;;12.13;2.20;;;;;;;-142.75;100.00;77515.28;5040743;28;20025;-67
2022/12/30 02:09:16;;;;;;;12.73;1.80;;;;;;;-142.75;100.00;77531.03;5040901;28;20029;-67
2022/12/30 02:11:42;;;;;;;12.40;2.53;;;;;;;-142.75;100.00;77527.09;5040841;28;20032;-67
2022/12/30 02:14:08;;;;;;;10.10;2.63;;;;;;;-142.75;100.00;77519.22;5040788;28;20820;-67
2022/12/30 02:17:01;;;;;;;11.02;2.05;;;;;;;-142.75;100.00;77511.34;5040354;28;20028;-67
2022/12/30 02:19:29;;;;;;;6.43;1.47;;;;;;;-142.75;100.00;77515.28;5040493;28;20033;-67
2022/12/30 02:22:17;;;;;;;13.53;2.07;;;;;;;-142.75;100.00;77519.22;5023002;28;20037;-67
2022/12/30 02:25:21;;;;;;;9.87;2.10;;;;;;;-142.75;100.00;77509.38;5040633;28;20061;-67
2022/12/30 02:28:04;;;;;;;6.67;1.80;;;;;;;-142.75;100.00;77523.16;5040108;28;20498;-67
2022/12/30 02:30:58;;;;;;;9.03;1.93;;;;;;;-142.75;100.00;77531.03;5040374;28;20036;-67
2022/12/30 02:33:35;;;;;;;9.73;2.00;;;;;;;-142.75;100.00;77531.03;5040709;28;20028;-67
2022/12/30 02:36:07;;;;;;;8.63;2.17;;;;;;;-142.75;100.00;77527.09;5040569;28;20028;-67
2022/12/30 02:38:49;;;;;;;15.57;2.40;;;;;;;-142.75;100.00;77517.25;5040013;28;20538;-67
2022/12/30 02:47:17;;;;;;;10.40;1.60;;;;;;;-142.75;100.00;77491.66;5047112;28;20071;-67
2022/12/30 02:52:14;;;;;;;20.50;2.37;;;;;;;-142.75;100.00;77479.84;5047225;28;20083;-67
2022/12/30 02:52:34;;;;;;;12.23;2.17;;;;;;;-142.75;100.00;77477.88;5046811;28;20138;-67
2022/12/30 02:54:59;;;;;;;12.93;2.30;;;;;;;-142.75;100.00;77477.88;5028818;28;20029;-67
2022/12/30 02:57:26;;;;;;;6.50;1.90;;;;;;;-142.75;100.00;77477.88;5046414;28;20800;-67
2022/12/30 03:05:40;;;;;;;15.80;1.97;;;;;;;-142.75;100.00;77462.13;5046825;28;20079;-67
2022/12/30 03:08:30;;;;;;;7.20;1.80;;;;;;;-142.75;100.00;77464.09;5028486;28;20029;-67
2022/12/30 03:11:12;;;;;;;8.30;1.93;;;;;;;-142.75;100.00;77471.97;5046975;28;20029;-67
2022/12/30 03:13:59;;;;;;;11.30;2.03;;;;;;;-142.75;100.00;77464.09;5046619;28;20055;-67
2022/12/30 03:16:38;;;;;;;13.25;2.17;;;;;;;-142.75;100.00;77468.03;5028887;28;20035;-67
2022/12/30 03:19:13;;;;;;;11.43;2.40;;;;;;;-142.75;100.00;77464.09;5046858;28;20025;-67
2022/12/30 03:21:41;;;;;;;11.70;1.50;;;;;;;-142.75;100.00;77464.09;5045483;28;20494;-67
2022/12/30 03:27:04;;;;;;;10.43;2.10;;;;;;;-142.75;100.00;77479.84;5046046;28;20044;-67
2022/12/30 03:29:40;;;;;;;21.10;4.23;;;;;;;-142.75;100.00;77477.88;5046790;28;20024;-67
2022/12/30 03:32:09;;;;;;;10.63;2.13;;;;;;;-142.75;100.00;77473.94;5046764;28;20833;-67
2022/12/30 03:34:35;;;;;;;12.27;2.33;;;;;;;-142.75;100.00;77491.66;5046632;28;20021;-67
2022/12/30 03:37:13;;;;;;;10.70;2.03;;;;;;;-142.75;100.00;77487.72;5046063;28;20024;-67
2022/12/30 03:39:43;;;;;;;9.90;1.57;;;;;;;-142.75;100.00;77475.91;5046402;28;20036;-67
2022/12/30 03:42:10;;;;;;;9.07;1.77;;;;;;;-142.75;100.00;77491.66;5028396;28;20036;-67
2022/12/30 03:44:39;;;;;;;12.00;2.03;;;;;;;-142.75;100.00;77499.53;5046494;28;20483;-67
2022/12/30 03:47:09;;;;;;;12.20;1.80;;;;;;;-142.75;100.00;77491.66;5045855;28;20032;-67
2022/12/30 03:49:38;;;;;;;17.07;2.07;;;;;;;-142.75;100.00;77503.47;5046822;28;20418;-67
2022/12/30 03:52:03;;;;;;;10.87;2.20;;;;;;;-142.75;100.00;77503.47;5043577;28;20033;-67
2022/12/30 03:54:29;;;;;;;14.68;2.00;;;;;;;-142.75;100.00;77519.22;5043540;28;20028;-67
2022/12/30 03:56:54;;;;;;;5.68;1.63;;;;;;;-142.75;100.00;77525.13;5025272;28;20025;-67
2022/12/30 03:59:19;;;;;;;9.32;1.70;;;;;;;-142.75;100.00;77513.31;5025320;28;20025;-67
2022/12/30 04:01:44;;;;;;;14.60;1.92;;;;;;;-142.75;100.00;77507.41;5043150;28;20410;-67
2022/12/30 04:04:10;;;;;;;11.60;2.08;;;;;;;-142.75;100.00;77523.16;5043519;28;20074;-67
2022/12/30 04:06:35;;;;;;;9.30;1.87;;;;;;;-142.75;100.00;77525.13;5042849;28;20013;-67
2022/12/30 04:09:00;;;;;;;8.33;1.93;;;;;;;-142.75;100.00;77529.06;5043002;28;20801;-67
2022/12/30 04:11:25;;;;;;;9.17;1.87;;;;;;;-142.75;100.00;77523.16;5025152;28;20293;-67
2022/12/30 04:13:51;;;;;;;11.97;2.10;;;;;;;-142.75;100.00;77538.91;5025419;28;20337;-67
2022/12/30 04:16:17;;;;;;;17.08;2.08;;;;;;;-142.75;100.00;77527.09;5024971;28;20701;-68
2022/12/30 04:18:42;;;;;;;10.27;2.50;;;;;;;-142.75;100.00;77527.09;5024255;28;20037;-67
2022/12/30 04:21:07;;;;;;;10.85;2.05;;;;;;;-142.75;100.00;77534.97;5043007;28;20278;-67
2022/12/30 04:23:33;;;;;;;8.10;2.08;;;;;;;-142.75;100.00;77531.03;5042957;28;20027;-68
2022/12/30 04:25:58;;;;;;;9.23;2.10;;;;;;;-142.75;100.00;77527.09;5025092;28;20040;-67
2022/12/30 04:28:24;;;;;;;7.50;1.55;;;;;;;-142.75;100.00;77531.03;5042338;28;20287;-67
2022/12/30 04:30:50;;;;;;;13.20;1.92;;;;;;;-142.75;100.00;77544.81;5042882;28;20025;-67
2022/12/30 04:33:15;;;;;;;5.95;1.70;;;;;;;-142.75;100.00;77538.91;5042719;28;20858;-67
2022/12/30 04:35:40;;;;;;;8.90;2.08;;;;;;;-142.75;100.00;77542.84;5042874;28;20024;-67
2022/12/30 04:38:06;;;;;;;9.40;2.88;;;;;;;-142.75;100.00;77527.09;5041622;28;20035;-67
2022/12/30 04:40:31;;;;;;;11.55;1.90;;;;;;;-142.75;100.00;77540.88;5042412;28;20117;-67
2022/12/30 04:42:56;;;;;;;11.25;1.88;;;;;;;-142.75;100.00;77552.69;5041203;28;20449;-67
2022/12/30 04:45:21;;;;;;;11.07;2.60;;;;;;;-142.75;100.00;77546.78;5042537;28;20144;-67
2022/12/30 04:47:47;;;;;;;18.67;2.00;;;;;;;-142.75;100.00;77527.09;5040716;28;20297;-67
2022/12/30 04:50:12;;;;;;;6.13;2.00;;;;;;;-142.75;100.00;77531.03;5042442;28;20639;-67
2022/12/30 04:52:37;;;;;;;13.53;2.60;;;;;;;-142.75;100.00;77521.19;5042143;28;20292;-67
2022/12/30 04:55:03;;;;;;;9.77;1.58;;;;;;;-142.75;100.00;77525.13;5042328;28;20033;-67
2022/12/30 04:57:29;;;;;;;;;;;;;;;-142.75;100.00;77511.34;5041933;28;20115;-67
2022/12/30 04:59:54;;;;;;;13.13;1.77;;;;;;;-142.75;100.00;77534.97;5024277;28;19994;-68
2022/12/30 05:02:19;;;;;;;10.32;1.80;;;;;;;-142.75;100.00;77536.94;5041931;28;20521;-67
2022/12/30 05:04:45;;;;;;;13.82;2.40;;;;;;;-142.75;100.00;77523.16;5040842;28;20738;-68
2022/12/30 05:07:10;;;;;;;12.05;2.10;;;;;;;-142.75;100.00;77531.03;5041458;28;20433;-67
2022/12/30 05:09:35;;;;;;;5.93;1.63;;;;;;;-142.75;100.00;77531.03;5041974;28;20052;-67
2022/12/30 05:12:00;;;;;;;9.85;1.80;;;;;;;-142.75;100.00;77538.91;5024282;28;20036;-67
2022/12/30 05:14:26;;;;;;;4.70;2.05;;;;;;;-142.75;100.00;77538.91;5042000;28;20064;-67
2022/12/30 05:16:51;;;;;;;15.75;3.20;;;;;;;-142.75;100.00;77554.66;5041500;28;20052;-67
2022/12/30 05:19:16;;;;;;;9.45;2.38;;;;;;;-142.75;100.00;77562.53;5041614;28;20118;-67
2022/12/30 05:21:42;;;;;;;15.97;2.50;;;;;;;-142.75;100.00;77546.78;5041893;28;20133;-69
2022/12/30 05:26:55;;;;;;;12.10;2.47;;;;;;;-142.75;100.00;77550.72;5041204;28;20035;-67
2022/12/30 05:29:21;;;;;;;12.93;2.10;;;;;;;-142.75;100.00;77550.72;5041534;28;20491;-67
2022/12/30 05:31:46;;;;;;;10.55;2.90;;;;;;;-142.75;100.00;77566.47;5041726;28;20033;-67
2022/12/30 05:34:12;;;;;;;7.43;2.53;;;;;;;-142.75;100.00;77562.53;5041458;28;20032;-67
2022/12/30 05:36:37;;;;;;;9.50;2.83;;;;;;;-142.75;100.00;77562.53;5040706;28;20090;-67
2022/12/30 05:39:03;;;;;;;14.88;2.45;;;;;;;-142.75;100.00;77546.78;5041314;28;20036;-67
2022/12/30 05:41:29;;;;;;;12.50;2.58;;;;;;;-142.75;100.00;77562.53;5041281;28;20029;-67
2022/12/30 05:43:54;;;;;;;17.80;2.65;;;;;;;-142.75;100.00;77554.66;5041489;28;20056;-67
2022/12/30 05:46:21;;;;;;;12.75;2.72;;;;;;;-142.75;100.00;77556.63;5041555;28;20079;-67
2022/12/30 05:48:46;;;;;;;13.13;2.50;;;;;;;-142.75;100.00;77550.72;5040826;28;20557;-68
2022/12/30 05:51:12;;;;;;;7.18;2.30;;;;;;;-142.75;100.00;77546.78;5041251;28;20039;-67
2022/12/30 05:53:37;;;;;;;13.48;2.40;;;;;;;-142.75;100.00;77558.59;5041122;28;20035;-67
2022/12/30 05:56:03;;;;;;;12.32;2.45;;;;;;;-142.75;100.00;77546.78;5023524;28;20029;-67
2022/12/30 05:58:28;;;;;;;9.63;2.90;;;;;;;-142.75;100.00;77550.72;5040311;28;20028;-67
2022/12/30 06:00:56;;;;;;;14.23;2.75;;;;;;;-142.75;100.00;77540.88;5041099;28;20175;-67
2022/12/30 06:03:22;;;;;;;13.53;2.77;;;;;;;-142.75;100.00;77558.59;5041098;28;20036;-69
2022/12/30 06:05:47;;;;;;;11.45;3.28;;;;;;;-142.75;100.00;77550.72;5041303;28;20033;-67
2022/12/30 06:08:12;;;;;;;11.77;2.90;;;;;;;-142.75;100.00;77542.84;5040141;28;20462;-67
2022/12/30 06:10:37;;;;;;;15.27;2.97;;;;;;;-142.75;100.00;77531.03;5023101;28;20488;-67
2022/12/30 06:13:03;;;;;;;9.43;2.85;;;;;;;-142.75;100.00;77544.81;5040561;28;20028;-67
2022/12/30 06:15:28;;;;;;;12.73;2.67;;;;;;;-142.75;100.00;77546.78;5040298;28;20039;-67
2022/12/30 06:17:53;;;;;;;8.88;2.08;;;;;;;-142.75;100.00;77562.53;5040072;28;20417;-67
2022/12/30 06:20:19;;;;;;;10.77;2.28;;;;;;;-142.75;100.00;77560.56;5023025;28;20835;-67
2022/12/30 06:22:44;;;;;;;17.02;2.50;;;;;;;-142.75;100.00;77558.59;5040449;28;20028;-68
2022/12/30 06:25:10;;;;;;;8.33;2.00;;;;;;;-142.75;100.00;77562.53;5041021;28;20815;-68
2022/12/30 06:27:35;;;;;;;12.52;2.55;;;;;;;-142.75;100.00;77568.44;5039912;28;20281;-67
2022/12/30 06:30:01;;;;;;;13.35;2.22;;;;;;;-142.75;100.00;77562.53;5040618;28;20029;-67
2022/12/30 06:32:26;;;;;;;12.23;2.22;;;;;;;-142.75;100.00;77554.66;5040981;28;20028;-67
2022/12/30 06:34:51;;;;;;;9.40;2.15;;;;;;;-142.75;100.00;77546.78;5041105;28;20024;-67
2022/12/30 06:37:17;;;;;;;8.20;1.95;;;;;;;-142.75;100.00;77562.53;5039886;28;20809;-67
2022/12/30 06:39:42;;;;;;;13.13;2.25;;;;;;;-142.75;100.00;77556.63;5040737;28;20087;-67
2022/12/30 06:42:07;;;;;;;12.13;2.38;;;;;;;-142.75;100.00;77562.53;5065489;22;20036;-62
2022/12/30 06:44:32;;;;;;;13.27;2.97;;;;;;;-142.75;100.00;77556.63;5020997;28;20592;-65
2022/12/30 06:46:59;;;;;;;14.23;2.10;;;;;;;-142.75;100.00;77542.84;5039735;28;20175;-65
2022/12/30 06:49:24;;;;;;;11.25;2.15;;;;;;;-142.75;100.00;77531.03;5040500;28;20849;-65
2022/12/30 06:51:49;;;;;;;12.97;1.87;;;;;;;-142.75;100.00;77536.94;5022840;28;20061;-64
2022/12/30 06:54:15;;;;;;;7.77;1.77;;;;;;;-142.75;100.00;77538.91;5040344;28;21005;-66
2022/12/30 06:56:40;;;;;;;11.10;1.77;;;;;;;-142.75;100.00;77534.97;5039589;28;20337;-65
2022/12/30 06:59:05;;;;;;;8.95;2.15;;;;;;;-142.75;100.00;77523.16;5040387;28;20333;-64
2022/12/30 07:01:31;;;;;;;13.32;2.67;;;;;;;-142.75;100.00;77531.03;5022696;28;20865;-65
2022/12/30 07:03:56;;;;;;;11.27;2.35;;;;;;;-142.75;100.00;77511.34;5040175;28;20029;-62
2022/12/30 07:06:21;;;;;;;13.47;2.80;;;;;;;-142.75;100.00;77499.53;5040366;28;20051;-62
2022/12/30 07:08:47;;;;;;;12.43;1.88;;;;;;;-142.75;100.00;77487.72;5022004;28;20333;-66
2022/12/30 07:11:12;;;;;;;14.80;3.23;;;;;;;-142.75;100.00;77509.38;5022214;28;20389;-65
2022/12/30 07:13:37;;;;;;;10.90;1.80;;;;;;;-142.75;100.00;77487.72;5040206;28;20286;-65
2022/12/30 07:16:03;;;;;;;7.47;2.58;;;;;;;-142.75;100.00;77485.75;5040249;28;20290;-64
2022/12/30 07:18:28;;;;;;;13.25;3.20;;;;;;;-142.75;100.00;77487.72;5039726;28;20116;-63
2022/12/30 07:20:54;;;;;;;17.88;3.08;;;;;;;-142.75;100.00;77473.94;5040177;28;20036;-65
2022/12/30 07:23:19;;;;;;;13.02;2.25;;;;;;;-142.75;100.00;77473.94;5040019;28;20071;-65
2022/12/30 07:25:45;;;;;;;8.27;2.28;;;;;;;-142.75;100.00;77483.78;5039903;28;20906;-62
2022/12/30 07:28:11;;;;;;;12.43;2.63;;;;;;;-142.75;100.00;77466.03;5024466;28;20028;-64
2022/12/30 07:30:36;;;;;;;12.48;2.50;;;;;;;-142.75;100.00;77464.09;5043675;28;20025;-64
2022/12/30 07:33:01;;;;;;;13.38;2.45;;;;;;;-142.75;100.00;77456.22;5043821;28;20025;-65
2022/12/30 07:35:27;;;;;;;10.90;3.00;;;;;;;-142.75;100.00;77466.03;5043749;28;20246;-64
2022/12/30 07:37:52;;;;;;;9.93;2.42;;;;;;;-142.75;100.00;77444.38;5043469;28;20555;-64
2022/12/30 07:40:18;;;;;;;17.93;3.07;;;;;;;-142.75;100.00;77456.22;5043671;28;20025;-65
2022/12/30 07:42:43;;;;;;;15.93;2.65;;;;;;;-142.75;100.00;77448.34;5043436;28;20275;-65
2022/12/30 07:45:09;;;;;;;11.73;2.80;;;;;;;-142.75;100.00;77444.38;5043758;28;20040;-65
2022/12/30 07:47:36;;;;;;;12.98;3.40;;;;;;;-142.75;100.00;77448.34;5042936;28;20054;-65
2022/12/30 07:50:02;;;;;;;15.67;2.80;;;;;;;-142.75;100.00;77442.41;5043508;28;20028;-66
2022/12/30 07:52:28;;;;;;;7.00;2.60;;;;;;;-142.75;100.00;77420.75;5025228;28;20020;-62
2022/12/30 07:54:53;;;;;;;10.88;3.00;;;;;;;-142.75;100.00;77432.56;5043574;28;20414;-66
2022/12/30 07:57:18;;;;;;;8.57;2.63;;;;;;;-142.75;100.00;77403.03;5042569;28;20025;-64
2022/12/30 07:59:44;;;;;;;10.10;2.80;;;;;;;-142.75;100.00;77389.25;5025169;28;20314;-65
2022/12/30 08:02:12;;;;;;;4.70;2.25;;;;;;;-142.75;100.00;77397.13;5043489;28;20052;-63
2022/12/30 08:04:38;;;;;;;6.57;2.50;;;;;;;-142.75;100.00;77391.22;5043114;28;20044;-66
2022/12/30 08:07:03;;;;;;;12.05;2.38;;;;;;;-142.75;100.00;77379.41;5042229;28;20055;-65
2022/12/30 08:09:29;;;;;;;11.80;3.78;;;;;;;-142.75;100.00;77385.31;5042775;28;20028;-64
2022/12/30 08:11:54;;;;;;;14.68;5.55;;;;;;;-142.75;100.00;77361.69;5043511;28;20031;-65
2022/12/30 08:14:20;;;;;;;21.23;8.38;;;;;;;-142.75;100.00;77361.69;5043189;28;20020;-65
2022/12/30 08:16:45;;;;;;;12.82;7.80;;;;;;;-142.75;100.00;77347.91;5042678;28;20487;-63
2022/12/30 08:19:11;;;;;;;14.32;3.95;;;;;;;-142.75;100.00;77349.88;5042967;28;20151;-66
2022/12/30 08:21:36;;;;;;;12.25;3.10;;;;;;;-142.75;100.00;77355.78;5043081;28;20025;-66
2022/12/30 08:24:01;;;;;;;17.85;3.65;;;;;;;-142.75;100.00;77353.81;5024938;28;20120;-65
2022/12/30 08:26:27;;;;;;;8.48;2.28;;;;;;;-142.75;100.00;77355.78;5042343;28;20032;-62
2022/12/30 08:28:52;;;;;;;11.00;3.13;;;;;;;-142.75;100.00;77340.03;5042549;28;20074;-65
2022/12/30 08:31:26;;;;;;;12.70;2.67;;;;;;;-142.75;100.00;77318.38;5025066;28;20395;-65
2022/12/30 08:33:54;;;;;;;8.80;2.10;;;;;;;-142.75;100.00;77328.22;5025072;28;20029;-64
2022/12/30 08:36:21;;;;;;;8.43;2.50;;;;;;;-142.75;100.00;77314.44;5042852;28;20132;-64
2022/12/30 08:38:50;;;;;;;12.77;2.43;;;;;;;-142.75;100.00;77298.69;5041731;28;20491;-65
2022/12/30 08:41:23;;;;;;;7.10;2.17;;;;;;;-142.75;100.00;77300.66;5042150;28;20928;-65
2022/12/30 08:43:48;;;;;;;15.93;2.63;;;;;;;-142.75;100.00;77306.56;5042004;28;20453;-63
2022/12/30 08:46:14;;;;;;;12.93;2.85;;;;;;;-142.75;100.00;77298.69;5042540;28;20024;-65
2022/12/30 08:48:40;;;;;;;5.60;2.10;;;;;;;-142.75;100.00;77288.84;5041472;28;20029;-64
2022/12/30 08:51:07;;;;;;;3.83;1.90;;;;;;;-142.75;100.00;77288.84;5042167;28;20479;-65
2022/12/30 08:53:33;;;;;;;9.73;2.13;;;;;;;-142.75;100.00;77284.91;5041968;28;20044;-65
2022/12/30 08:56:20;;;;;;;10.53;2.80;;;;;;;-142.75;100.00;77275.06;5042374;28;20049;-64
2022/12/30 08:58:46;;;;;;;6.25;2.25;;;;;;;-142.75;100.00;77277.03;5023328;28;20064;-64
2022/12/30 09:01:13;;;;;;;13.95;2.25;;;;;;;-142.75;100.00;77273.09;5042304;28;20119;-65
2022/12/30 09:03:39;;;;;;;8.30;2.37;;;;;;;-142.75;100.00;77251.44;5041983;28;20548;-64
2022/12/30 09:06:06;;;;;;;10.53;2.67;;;;;;;-142.75;100.00;77235.69;5042304;28;20028;-66
2022/12/30 09:08:31;;;;;;;5.97;2.10;;;;;;;-142.75;100.00;77245.53;5041469;28;20066;-65
2022/12/30 09:11:02;;;;;;;10.25;2.35;;;;;;;-142.75;100.00;77233.72;5042083;28;20078;-64
2022/12/30 09:13:28;;;;;;;10.20;2.63;;;;;;;-142.75;100.00;77227.81;5042000;28;20025;-66
2022/12/30 09:15:54;;;;;;;12.00;2.60;;;;;;;-142.75;100.00;77227.81;5024155;28;20032;-63
2022/12/30 09:18:20;;;;;;;5.00;2.20;;;;;;;-142.75;100.00;77227.81;5001552;28;20308;-64
2022/12/30 09:20:45;;;;;;;5.95;2.03;;;;;;;-142.75;100.00;77247.50;5035585;28;20511;-65
2022/12/30 09:23:10;;;;;;;6.30;2.10;;;;;;;-142.75;100.00;77200.25;5035974;28;20033;-67
2022/12/30 09:25:36;;;;;;;5.68;1.63;;;;;;;-142.75;100.00;77202.22;5023716;28;20279;-66
2022/12/30 09:28:01;;;;;;;5.25;1.70;;;;;;;-142.75;100.00;77192.38;5038501;28;20112;-66
2022/12/30 09:30:26;;;;;;;6.63;2.22;;;;;;;-142.75;100.00;77178.59;5039314;28;20032;-63
2022/12/30 09:32:52;;;;;;;5.03;2.00;;;;;;;-142.75;100.00;77178.59;5038566;28;20112;-65
2022/12/30 09:35:17;;;;;;;8.98;2.30;;;;;;;-142.75;100.00;77164.81;5022671;28;20036;-65
2022/12/30 09:37:43;;;;;;;9.40;1.85;;;;;;;-142.75;100.00;77164.81;5038577;28;20082;-67
2022/12/30 09:40:14;;;;;;;9.68;1.92;;;;;;;-142.75;100.00;77154.97;5038742;28;20078;-63
2022/12/30 09:45:41;;;;;;;5.73;2.03;;;;;;;-142.75;100.00;77131.34;5036968;28;20047;-63
2022/12/30 09:48:15;;;;;;;4.77;1.97;;;;;;;-142.75;100.00;77139.22;4963372;28;20029;-65
2022/12/30 09:50:50;;;;;;;4.37;1.97;;;;;;;-142.75;100.00;77117.56;4980034;28;20075;-65
2022/12/30 09:53:43;;;;;;;7.63;2.03;;;;;;;-142.75;100.00;77111.66;4982676;28;20090;-67
2022/12/30 09:56:36;;;;;;;5.47;1.73;;;;;;;-142.75;100.00;77119.53;4982772;28;20084;-67
2022/12/30 09:59:24;;;;;;;8.03;1.80;;;;;;;-142.75;100.00;77090.00;4973034;28;20190;-67
2022/12/30 10:01:57;;;;;;;4.13;1.60;;;;;;;-142.75;100.00;77095.91;4982909;28;20143;-68
2022/12/30 10:04:35;;;;;;;9.43;1.93;;;;;;;-142.75;100.00;77082.13;4982761;28;20636;-65
2022/12/30 10:07:05;;;;;;;3.13;1.73;;;;;;;-142.75;100.00;77060.47;4982672;28;20025;-67
2022/12/30 10:09:48;;;;;;;4.07;1.30;;;;;;;-142.75;100.00;77074.25;4972688;28;20079;-65
2022/12/30 10:12:34;;;;;;;5.30;2.07;;;;;;;-142.75;100.00;77050.63;4976370;28;20635;-67
2022/12/30 10:15:20;;;;;;;4.50;1.70;;;;;;;-142.75;100.00;77040.78;4970229;28;20029;-67
2022/12/30 10:18:11;;;;;;;8.80;1.65;;;;;;;-142.75;100.00;77017.16;4964121;28;20480;-64
2022/12/30 10:21:14;;;;;;;3.73;1.40;;;;;;;-142.75;100.00;77005.34;4955341;28;20043;-66
2022/12/30 10:23:45;;;;;;;7.63;1.30;;;;;;;-142.75;100.00;77017.16;4964097;28;20067;-67
2022/12/30 10:26:20;;;;;;;4.53;1.33;;;;;;;-142.75;100.00;77007.31;4982916;28;20029;-66
2022/12/30 10:28:51;;;;;;;5.60;1.17;;;;;;;-142.75;100.00;76999.44;4974483;28;20025;-66
2022/12/30 10:31:23;;;;;;;7.80;1.60;;;;;;;-142.75;100.00;76973.84;4981779;28;20017;-66
2022/12/30 10:33:52;;;;;;;5.40;1.90;;;;;;;-142.75;100.00;76964.00;4971973;28;20815;-66
2022/12/30 10:36:32;;;;;;;6.93;2.00;;;;;;;-142.75;100.00;76983.69;4981512;28;20637;-66
2022/12/30 10:39:24;;;;;;;4.87;1.50;;;;;;;-142.75;100.00;76956.13;4959708;28;20624;-66
2022/12/30 10:42:15;;;;;;;1.90;0.93;;;;;;;-142.75;100.00;76950.22;4981746;28;20028;-66
2022/12/30 10:45:18;;;;;;;8.30;2.20;;;;;;;-142.75;100.00;76920.69;4979395;28;20131;-66
2022/12/30 10:48:15;;;;;;;5.23;1.00;;;;;;;-142.75;100.00;76916.75;4974371;28;20028;-66
2022/12/30 10:50:45;;;;;;;6.90;1.48;;;;;;;-142.75;100.00;76906.91;4960343;28;20593;-66
2022/12/30 10:53:22;;;;;;;5.03;1.27;;;;;;;-142.75;100.00;76893.13;4980610;28;20033;-66
2022/12/30 10:55:47;;;;;;;;;;;;;;;-142.75;100.00;76881.31;4981214;28;20055;-66
2022/12/30 10:58:38;;;;;;;6.17;1.20;;;;;;;-142.75;100.00;76861.63;4981502;28;20356;-66
2022/12/30 11:01:04;;;;;;;10.33;1.53;;;;;;;-142.75;100.00;76849.81;4983145;28;20032;-66
2022/12/30 11:03:29;;;;;;;5.38;1.27;;;;;;;-142.75;100.00;76845.88;4985477;28;20378;-67
2022/12/30 11:05:56;;;;;;;2.87;1.33;;;;;;;-142.75;100.00;76843.91;4985347;28;20021;-67
2022/12/30 11:08:28;;;;;;;5.10;1.60;;;;;;;-142.75;100.00;76839.97;4985560;28;20294;-66
2022/12/30 11:10:58;;;;;;;8.73;1.20;;;;;;;-142.75;100.00;76814.38;4967215;28;20156;-67
2022/12/30 11:16:08;;;;;;;3.20;0.80;;;;;;;-142.75;100.00;76782.91;4985258;28;20118;-67
2022/12/30 11:18:35;;;;;;;7.13;1.00;;;;;;;-142.75;100.00;76784.88;4985178;28;20425;-66
2022/12/30 11:21:00;;;;;;;7.83;1.73;;;;;;;-142.75;100.00;76763.22;4984996;28;20554;-67
2022/12/30 11:23:35;;;;;;;7.43;1.33;;;;;;;-142.75;100.00;76759.28;4984382;28;20033;-67
2022/12/30 11:26:05;;;;;;;6.03;1.30;;;;;;;-142.75;100.00;76753.38;4966831;28;20023;-67
2022/12/30 11:28:44;;;;;;;6.60;1.07;;;;;;;-142.75;100.00;76743.53;4984970;28;20538;-67
2022/12/30 11:31:15;;;;;;;7.47;1.57;;;;;;;-142.75;100.00;76737.63;4983311;28;20025;-66
2022/12/30 11:33:51;;;;;;;8.67;1.70;;;;;;;-142.75;100.00;76704.16;4984619;28;20032;-66
2022/12/30 11:36:19;;;;;;;7.28;1.33;;;;;;;-142.75;100.00;76712.03;4966538;28;20020;-66
2022/12/30 11:38:47;;;;;;;8.97;1.67;;;;;;;-142.75;100.00;76702.19;4966313;28;20556;-66
2022/12/30 11:41:16;;;;;;;5.40;1.00;;;;;;;-142.75;100.00;76680.53;4966220;28;20110;-67
2022/12/30 11:43:46;;;;;;;8.47;1.70;;;;;;;-142.75;100.00;76688.41;4984292;28;20221;-67
2022/12/30 11:46:15;;;;;;;9.07;1.50;;;;;;;-142.75;100.00;76664.78;4984495;28;20114;-67
2022/12/30 11:48:51;;;;;;;7.07;0.90;;;;;;;-142.75;100.00;76652.97;4984306;28;20102;-67
2022/12/30 11:51:23;;;;;;;9.75;1.77;;;;;;;-142.75;100.00;76684.47;4984717;28;20056;-65
2022/12/30 11:54:02;;;;;;;5.50;1.10;;;;;;;-142.75;100.00;76641.16;4965396;28;20051;-67
2022/12/30 11:56:28;;;;;;;4.27;1.20;;;;;;;-142.75;100.00;76660.84;4984672;28;20021;-66
2022/12/30 11:58:54;;;;;;;3.72;1.42;;;;;;;-142.75;100.00;76658.88;4966315;28;20335;-67
2022/12/30 12:01:19;;;;;;;7.40;1.27;;;;;;;-142.75;100.00;76660.84;4984391;28;20037;-66
2022/12/30 12:03:58;;;;;;;8.77;1.33;;;;;;;-142.75;100.00;76649.03;4984279;28;20415;-67
2022/12/30 12:06:23;;;;;;;5.67;1.20;;;;;;;-142.75;100.00;76649.03;4970498;28;20043;-66
2022/12/30 12:09:00;;;;;;;5.03;1.30;;;;;;;-142.75;100.00;76645.09;4965747;28;20351;-67
2022/12/30 12:11:30;;;;;;;6.07;1.40;;;;;;;-142.75;100.00;76633.28;4983879;28;20331;-67